Sundre, Alberta

7:57 AM MDT on July 01, 2015 (GMT -0600)
Sundre North | | Change Station
CLOSE
Current Station
Personal Weather Station
Location: Sundre, ALBERTA
Elevation: 3573 ft
Nearby Weather Stations

Elev 3573 ft 51.81 °N, 114.63 °W | Updated 14 minutes ago

Overcast
Overcast
55.8 °F
Feels Like 55.8 °F
N
3.7
Wind Variable Wind from SSW

Today is forecast to be nearly the same temperature as yesterday.

Today
High -- | Low -- °F
--% Chance of Precip.
Yesterday
High -- | Low -- °F
Precip. -- in
5:24 AM 10:00 PM
Full, 100% visible
Pressure 30.08 in
Visibility 15.0 miles
Clouds Mostly Cloudy 3400 ft
Overcast 7000 ft
Dew Point 54 °F
Humidity 92%
Rainfall 0.32 in
Snow Depth Not available.
UV 0 out of 12
Pollen Not available.
Air Quality Not available.
Flu Activity Not available.
METAR CYQF 011300Z 30010KT 15SM VCSH BKN034 OVC070 15/13 A3006 RMK SC7AC1 SLP186 DENSITY ALT 3400FT

More Conditions Fewer Conditions

Pressure 30.08 in
Visibility 15.0 miles
Clouds Mostly Cloudy 3400 ft
Overcast 7000 ft
Dew Point 54 °F
Humidity 92%
Rainfall 0.32 in
Snow Depth Not available.
UV 0 out of 12
Pollen Not available.
Air Quality Not available.
Flu Activity Not available.
METAR CYQF 011300Z 30010KT 15SM VCSH BKN034 OVC070 15/13 A3006 RMK SC7AC1 SLP186 DENSITY ALT 3400FT

More Conditions Fewer Conditions

10-Day Weather Forecast

×

Almanac

Astronomy

Jul. 01, 2015 Rise Set
Actual Time
Civil Twilight
Nautical Twilight
Astronomical Twilight
Moon
Length of Visible Light
Length of Day
Tomorrow will be .
, % of the Moon is Illuminated

Today's Extremes

Country Highs Country Lows

Community

WunderPhotos

Upload Photos

1,834,198 photos uploaded!

WunderBlogs® & News

Nearby

Air Quality

  Air Quality AQ Index Pollutant
Not available.

Snow Depth

Station Depth Elevation

Earthquake Activity

City Distance Mag. Time & Date
Minimum magnitude displayed is 2.5.

Coastal Water Temperatures

Place Temperature

Stations

Nearby Weather Stations

Station Location Temp. Windchill Dew Point Humidity Wind Precip. Elev Updated Type